Time,TemperatureF,DewpointF,PressureIn,WindDirection,WindDirectionDegrees,WindSpeedMPH,WindSpeedGustMPH,Humidity,HourlyPrecipIn,Conditions,Clouds,dailyrainin,SoftwareType,DateUTC
2013-08-05 00:01:00,57.0,51.0,30.03,NNW,344,0.0,0.0,79,0.00,,,0.00,,2013-08-05 06:01:00,
2013-08-05 00:11:00,57.0,51.0,30.03,NNW,344,0.0,0.0,79,0.00,,,0.00,,2013-08-05 06:11:00,
2013-08-05 00:22:00,56.0,50.0,30.00,NNW,344,0.0,0.0,79,0.00,,,0.00,,2013-08-05 06:22:00,
2013-08-05 00:32:00,56.0,50.0,30.00,NNW,344,0.0,0.0,79,0.00,,,0.00,,2013-08-05 06:32:00,
2013-08-05 00:43:00,56.0,50.0,30.00,NNW,344,0.0,0.0,79,0.00,,,0.00,,2013-08-05 06:43:00,
2013-08-05 00:52:00,55.0,49.0,30.00,NNW,344,0.0,0.0,79,0.00,,,0.00,,2013-08-05 06:52:00,
2013-08-05 01:02:00,55.0,49.0,30.00,NNW,344,0.0,0.0,79,0.00,,,0.00,,2013-08-05 07:02:00,
2013-08-05 01:12:00,55.0,49.0,30.00,NNW,344,0.0,0.0,79,0.00,,,0.00,,2013-08-05 07:12:00,
2013-08-05 01:22:00,54.0,48.0,29.99,NNW,344,0.0,0.0,80,0.00,,,0.00,,2013-08-05 07:22:00,
2013-08-05 01:32:00,54.0,48.0,29.99,NNW,344,0.0,0.0,80,0.00,,,0.00,,2013-08-05 07:32:00,
2013-08-05 01:43:00,54.0,48.0,29.99,NNW,344,0.0,0.0,80,0.00,,,0.00,,2013-08-05 07:43:00,
2013-08-05 01:53:00,53.0,48.0,29.99,NNW,344,0.0,1.0,82,0.00,,,0.00,,2013-08-05 07:53:00,
2013-08-05 02:02:00,53.0,48.0,29.99,NNW,344,0.0,1.0,82,0.00,,,0.00,,2013-08-05 08:02:00,
2013-08-05 02:12:00,53.0,48.0,29.99,NNW,344,0.0,1.0,82,0.00,,,0.00,,2013-08-05 08:12:00,
2013-08-05 02:22:00,52.0,47.0,30.00,NNE,22,0.0,2.0,83,0.00,,,0.00,,2013-08-05 08:22:00,
2013-08-05 02:50:00,52.0,47.0,30.00,NNE,22,0.0,2.0,83,0.00,,,0.00,,2013-08-05 08:50:00,
2013-08-05 03:02:00,52.0,48.0,30.00,NNE,22,0.0,0.0,85,0.00,,,0.00,,2013-08-05 09:02:00,
2013-08-05 03:14:00,52.0,48.0,30.00,NNE,22,0.0,0.0,85,0.00,,,0.00,,2013-08-05 09:14:00,
2013-08-05 03:22:00,52.0,47.0,29.99,NNE,22,0.0,0.0,84,0.00,,,0.00,,2013-08-05 09:22:00,
2013-08-05 03:32:00,52.0,47.0,29.99,NNE,22,0.0,0.0,84,0.00,,,0.00,,2013-08-05 09:32:00,
2013-08-05 03:48:00,52.0,47.0,29.99,NNE,22,0.0,0.0,84,0.00,,,0.00,,2013-08-05 09:48:00,
2013-08-05 03:53:00,52.0,48.0,29.97,NNE,22,0.0,0.0,86,0.00,,,0.00,,2013-08-05 09:53:00,
2013-08-05 04:02:00,52.0,48.0,29.97,NNE,22,0.0,0.0,86,0.00,,,0.00,,2013-08-05 10:02:00,
2013-08-05 04:13:00,52.0,48.0,29.97,NNE,22,0.0,0.0,86,0.00,,,0.00,,2013-08-05 10:13:00,
2013-08-05 04:32:00,52.0,47.0,29.99,NNE,22,0.0,0.0,84,0.00,,,0.00,,2013-08-05 10:32:00,
2013-08-05 04:49:00,52.0,47.0,29.99,NNE,22,0.0,0.0,84,0.00,,,0.00,,2013-08-05 10:49:00,
2013-08-05 05:02:00,51.0,47.0,29.97,NNE,22,0.0,0.0,87,0.00,,,0.00,,2013-08-05 11:02:00,
2013-08-05 05:13:00,51.0,47.0,29.97,NNE,22,0.0,0.0,87,0.00,,,0.00,,2013-08-05 11:13:00,
2013-08-05 05:51:00,51.0,47.0,29.96,NNE,22,0.0,0.0,86,0.00,,,0.00,,2013-08-05 11:51:00,
2013-08-05 06:02:00,51.0,48.0,29.96,North,360,0.0,0.0,88,0.00,,,0.00,,2013-08-05 12:02:00,
2013-08-05 06:14:00,51.0,48.0,29.96,North,360,0.0,0.0,88,0.00,,,0.00,,2013-08-05 12:14:00,
2013-08-05 06:23:00,51.0,47.0,29.96,North,360,0.0,0.0,87,0.00,,,0.00,,2013-08-05 12:23:00,
2013-08-05 07:02:00,51.0,48.0,29.97,North,360,0.0,0.0,88,0.00,,,0.00,,2013-08-05 13:02:00,
2013-08-05 07:13:00,51.0,48.0,29.97,North,360,0.0,0.0,88,0.00,,,0.00,,2013-08-05 13:13:00,
2013-08-05 07:33:00,51.0,48.0,29.97,North,360,0.0,0.0,88,0.00,,,0.00,,2013-08-05 13:33:00,
2013-08-05 07:45:00,51.0,48.0,29.97,North,360,0.0,0.0,88,0.00,,,0.00,,2013-08-05 13:45:00,
2013-08-05 07:53:00,51.0,48.0,29.98,North,360,0.0,0.0,89,0.00,,,0.00,,2013-08-05 13:53:00,
2013-08-05 08:02:00,51.0,48.0,29.98,North,360,0.0,0.0,89,0.00,,,0.00,,2013-08-05 14:02:00,
2013-08-05 08:14:00,51.0,48.0,29.98,North,360,0.0,0.0,89,0.00,,,0.00,,2013-08-05 14:14:00,
2013-08-05 08:48:00,53.0,49.0,29.97,North,360,0.0,0.0,86,0.00,,,0.00,,2013-08-05 14:48:00,
2013-08-05 08:53:00,57.0,52.0,29.96,North,360,0.0,0.0,82,0.00,,,0.00,,2013-08-05 14:53:00,
2013-08-05 09:13:00,57.0,52.0,29.96,North,360,0.0,0.0,82,0.00,,,0.00,,2013-08-05 15:13:00,
2013-08-05 09:48:00,64.0,52.0,29.96,North,5,0.0,1.0,66,0.00,,,0.00,,2013-08-05 15:48:00,
2013-08-05 09:58:00,67.0,53.0,29.97,ENE,74,0.0,3.0,61,0.00,,,0.00,,2013-08-05 15:58:00,
2013-08-05 10:13:00,67.0,53.0,29.97,ENE,74,0.0,3.0,61,0.00,,,0.00,,2013-08-05 16:13:00,
2013-08-05 10:32:00,68.0,52.0,29.96,NW,319,0.0,5.0,57,0.00,,,0.00,,2013-08-05 16:32:00,
2013-08-05 10:45:00,68.0,52.0,29.96,NW,319,0.0,5.0,57,0.00,,,0.00,,2013-08-05 16:45:00,
2013-08-05 10:58:00,70.0,52.0,29.97,ESE,107,0.0,5.0,52,0.00,,,0.00,,2013-08-05 16:58:00,
2013-08-05 11:14:00,70.0,52.0,29.97,ESE,107,0.0,5.0,52,0.00,,,0.00,,2013-08-05 17:14:00,
2013-08-05 11:32:00,72.0,53.0,29.96,West,273,0.0,5.0,52,0.00,,,0.00,,2013-08-05 17:32:00,
2013-08-05 11:50:00,72.0,53.0,29.96,West,273,0.0,5.0,52,0.00,,,0.00,,2013-08-05 17:50:00,
2013-08-05 11:57:00,71.0,54.0,29.98,ESE,117,0.0,4.0,54,0.00,,,0.00,,2013-08-05 17:57:00,
2013-08-05 12:13:00,71.0,54.0,29.98,ESE,117,0.0,4.0,54,0.00,,,0.00,,2013-08-05 18:13:00,
2013-08-05 12:45:00,69.0,55.0,29.96,NNW,346,0.0,3.0,60,0.00,,,0.00,,2013-08-05 18:45:00,
2013-08-05 12:54:00,71.0,52.0,29.96,ESE,111,1.0,2.0,52,0.00,,,0.00,,2013-08-05 18:54:00,
2013-08-05 13:13:00,71.0,52.0,29.96,ESE,111,1.0,2.0,52,0.00,,,0.00,,2013-08-05 19:13:00,
2013-08-05 13:22:00,74.0,53.0,29.97,ESE,120,1.0,9.0,48,0.00,,,0.00,,2013-08-05 19:22:00,
2013-08-05 13:52:00,74.0,53.0,29.97,ESE,120,1.0,9.0,48,0.00,,,0.00,,2013-08-05 19:52:00,
2013-08-05 14:02:00,77.0,51.0,29.95,SE,141,2.0,10.0,41,0.00,,,0.00,,2013-08-05 20:02:00,
2013-08-05 14:32:00,76.0,50.0,29.95,NNE,14,1.0,9.0,40,0.00,,,0.00,,2013-08-05 20:32:00,
2013-08-05 14:48:00,76.0,50.0,29.95,NNE,14,1.0,9.0,40,0.00,,,0.00,,2013-08-05 20:48:00,
2013-08-05 15:01:00,75.0,51.0,29.96,NNW,338,1.0,6.0,43,0.00,,,0.00,,2013-08-05 21:01:00,
2013-08-05 15:13:00,75.0,51.0,29.96,NNW,338,1.0,6.0,43,0.00,,,0.00,,2013-08-05 21:13:00,
2013-08-05 15:22:00,73.0,56.0,29.95,East,89,0.0,6.0,56,0.00,,,0.00,,2013-08-05 21:22:00,
2013-08-05 15:32:00,73.0,56.0,29.95,East,89,0.0,6.0,56,0.00,,,0.00,,2013-08-05 21:32:00,
2013-08-05 15:48:00,73.0,56.0,29.95,East,89,0.0,6.0,56,0.00,,,0.00,,2013-08-05 21:48:00,
2013-08-05 15:53:00,77.0,51.0,29.93,NE,46,1.0,10.0,40,0.00,,,0.00,,2013-08-05 21:53:00,
2013-08-05 16:01:00,77.0,51.0,29.93,NE,46,1.0,10.0,40,0.00,,,0.00,,2013-08-05 22:01:00,
2013-08-05 16:13:00,77.0,51.0,29.93,NE,46,1.0,10.0,40,0.00,,,0.00,,2013-08-05 22:13:00,
2013-08-05 16:22:00,76.0,51.0,29.92,North,351,2.0,6.0,41,0.00,,,0.00,,2013-08-05 22:22:00,
2013-08-05 16:32:00,76.0,51.0,29.92,North,351,2.0,6.0,41,0.00,,,0.00,,2013-08-05 22:32:00,
2013-08-05 16:44:00,76.0,51.0,29.92,North,351,2.0,6.0,41,0.00,,,0.00,,2013-08-05 22:44:00,
2013-08-05 16:53:00,76.0,45.0,29.93,NE,49,0.0,3.0,33,0.00,,,0.00,,2013-08-05 22:53:00,
2013-08-05 17:02:00,76.0,45.0,29.93,NE,49,0.0,3.0,33,0.00,,,0.00,,2013-08-05 23:02:00,
2013-08-05 17:32:00,78.0,45.0,29.91,East,98,1.0,6.0,31,0.00,,,0.00,,2013-08-05 23:32:00,
2013-08-05 17:46:00,78.0,45.0,29.91,East,98,1.0,6.0,31,0.00,,,0.00,,2013-08-05 23:46:00,
2013-08-05 17:58:00,77.0,46.0,29.92,East,95,1.0,7.0,34,0.00,,,0.00,,2013-08-05 23:58:00,
2013-08-05 18:14:00,77.0,46.0,29.92,East,95,1.0,7.0,34,0.00,,,0.00,,2013-08-06 00:14:00,
2013-08-05 18:45:00,69.0,48.0,29.95,East,91,1.0,5.0,47,0.00,,,0.00,,2013-08-06 00:45:00,
2013-08-05 18:57:00,68.0,49.0,29.93,SW,216,0.0,6.0,51,0.00,,,0.00,,2013-08-06 00:57:00,
2013-08-05 19:14:00,68.0,49.0,29.93,SW,216,0.0,6.0,51,0.00,,,0.00,,2013-08-06 01:14:00,
2013-08-05 19:23:00,67.0,47.0,29.93,SSW,211,0.0,3.0,49,0.00,,,0.00,,2013-08-06 01:23:00,
2013-08-05 19:32:00,67.0,47.0,29.93,SSW,211,0.0,3.0,49,0.00,,,0.00,,2013-08-06 01:32:00,
2013-08-05 19:51:00,67.0,47.0,29.93,SSW,211,0.0,3.0,49,0.00,,,0.00,,2013-08-06 01:51:00,
2013-08-05 20:02:00,66.0,50.0,29.93,WSW,246,0.0,0.0,57,0.00,,,0.00,,2013-08-06 02:02:00,
2013-08-05 20:13:00,66.0,50.0,29.93,WSW,246,0.0,0.0,57,0.00,,,0.00,,2013-08-06 02:13:00,
2013-08-05 20:52:00,64.0,49.0,29.95,WSW,246,0.0,0.0,59,0.00,,,0.00,,2013-08-06 02:52:00,
2013-08-05 21:01:00,64.0,49.0,29.95,WSW,246,0.0,0.0,59,0.00,,,0.00,,2013-08-06 03:01:00,
2013-08-05 21:14:00,64.0,49.0,29.95,WSW,246,0.0,0.0,59,0.00,,,0.00,,2013-08-06 03:14:00,
2013-08-05 21:22:00,61.0,51.0,29.95,WSW,246,0.0,0.0,69,0.00,,,0.00,,2013-08-06 03:22:00,
2013-08-05 21:32:00,61.0,51.0,29.95,WSW,246,0.0,0.0,69,0.00,,,0.00,,2013-08-06 03:32:00,
2013-08-05 21:45:00,61.0,51.0,29.95,WSW,246,0.0,0.0,69,0.00,,,0.00,,2013-08-06 03:45:00,
2013-08-05 21:52:00,58.0,49.0,29.98,WSW,248,0.0,0.0,72,0.00,,,0.00,,2013-08-06 03:52:00,
2013-08-05 22:01:00,58.0,49.0,29.98,WSW,248,0.0,0.0,72,0.00,,,0.00,,2013-08-06 04:01:00,
2013-08-05 22:11:00,58.0,49.0,29.98,WSW,248,0.0,0.0,72,0.00,,,0.00,,2013-08-06 04:11:00,
2013-08-05 22:32:00,57.0,49.0,29.96,WSW,248,0.0,1.0,74,0.00,,,0.00,,2013-08-06 04:32:00,
2013-08-05 22:44:00,57.0,49.0,29.96,WSW,248,0.0,1.0,74,0.00,,,0.00,,2013-08-06 04:44:00,
2013-08-05 22:53:00,56.0,48.0,29.98,NW,309,0.0,2.0,75,0.00,,,0.00,,2013-08-06 04:53:00,
2013-08-05 23:02:00,56.0,48.0,29.98,NW,309,0.0,2.0,75,0.00,,,0.00,,2013-08-06 05:02:00,
2013-08-05 23:11:00,56.0,48.0,29.98,NW,309,0.0,2.0,75,0.00,,,0.00,,2013-08-06 05:11:00,
2013-08-05 23:21:00,55.0,48.0,29.98,NW,309,0.0,0.0,77,0.00,,,0.00,,2013-08-06 05:21:00,
2013-08-05 23:32:00,55.0,48.0,29.98,NW,309,0.0,0.0,77,0.00,,,0.00,,2013-08-06 05:32:00,
2013-08-05 23:43:00,55.0,48.0,29.98,NW,309,0.0,0.0,77,0.00,,,0.00,,2013-08-06 05:43:00,
2013-08-05 23:53:00,54.0,48.0,29.98,NW,309,0.0,0.0,79,0.00,,,0.00,,2013-08-06 05:53:00,